Watauga, Texas
Current Conditions -  °F | °C
As of 6:53 PM on Wednesday 22 Oct 2014 (Local Time) from KFTW Reporting Station
Clear Clear  
Wind Chill: 24°   Ceiling: Unl
Heat Index: 24°   Visibility: 10mi
Dew Point: 14°   Wind: 7mph
Humidity: 52%   Direction: 140°SE
Pressure: 30.08"   Gusts: NA
Location:  32.8687°N, 97.2516°W
Report Text: KFTW 222353Z 14006KT 10SM CLR 24/14 A3008 RMK AO2 SLP179 T02440139 10278 20244 53003
Loading
Personal Weather Stations






























Interactive Weather Map
Tropical Storm Tracking
New forecast layout! Learn more

10-Day Weather Forecast

Advertisements
Track Severe Weather on mobile